Aviation Digital Data Service (ADDS)

Output produced by METARs form (2219 UTC 22 September 2020)
found at http://www.aviationweather.gov/metar/data/
 
Forecast for: GUCY (CONAKRY/GBESSIA , GN)
Text: TAF GUCY 221700Z 2218/2324 24008KT 9999 SCT015 SCT100
Forecast period: 1800 UTC 22 September 2020 to 0000 UTC 24 September 2020
Forecast type: FROM: standard forecast or significant change
Winds: from the WSW (240 degrees) at 9 MPH (8 knots; 4.1 m/s)
Visibility: 6 or more miles (10+ km)
Ceiling: at least 12,000 feet AGL
Clouds: scattered clouds at 1500 feet AGL
scattered clouds at 10000 feet AGL
Weather: no significant weather forecast for this period
Text: PROB30
Forecast period: 0200 to 0700 UTC 23 September 2020
Forecast type: TEMPORARY: The following changes expected for less than half the time period
Winds: from the SE (140 degrees) at 14 MPH (12 knots; 6.2 m/s)
Visibility: 4 miles (6 km)
Ceiling: 1200 feet AGL
Clouds: broken clouds at 1200 feet AGL
few clouds at 2300 feet AGL
broken clouds at 11000 feet AGL
Weather: -TSRA  (light rain associated with thunderstorm(s))